Time;durP1;ratioP1;P1;durP2;ratioP2;P2;SDS_P1;SDS_P2;PMS_P1;PMS_P2;Temp;Humidity;BMP_temperature;BMP_pressure;BME280_temperature;BME280_humidity;BME280_pressure;Samples;Min_cycle;Max_cycle;Signal;HPM_P1;HPM_P2
2023/01/06 00:02:08;;;;;;;29.52;12.57;;;10.90;99.90;;;;;;6146305;23;20040;-77
2023/01/06 00:04:37;;;;;;;30.27;12.75;;;11.20;99.90;;;;;;6193884;23;20522;-77
2023/01/06 00:07:02;;;;;;;26.95;12.50;;;10.90;99.90;;;;;;6144336;23;20059;-77
2023/01/06 00:09:28;;;;;;;24.55;11.68;;;10.90;99.90;;;;;;6168821;23;20017;-78
2023/01/06 00:11:53;;;;;;;31.20;12.98;;;11.00;99.90;;;;;;6167497;23;20017;-77
2023/01/06 00:14:19;;;;;;;31.30;11.98;;;11.20;99.90;;;;;;6144734;23;20047;-77
2023/01/06 00:16:45;;;;;;;30.42;10.93;;;11.30;99.90;;;;;;6193665;23;20016;-78
2023/01/06 00:19:14;;;;;;;21.50;9.48;;;10.90;99.90;;;;;;6170104;23;20024;-78
2023/01/06 00:21:41;;;;;;;31.38;10.38;;;11.30;99.90;;;;;;6167503;23;20013;-78
2023/01/06 00:24:08;;;;;;;25.08;9.45;;;11.20;99.90;;;;;;6194592;23;20067;-78
2023/01/06 00:26:33;;;;;;;22.98;9.98;;;11.20;99.90;;;;;;6145940;23;20044;-79
2023/01/06 00:29:00;;;;;;;29.27;9.52;;;11.20;99.90;;;;;;6167409;23;20020;-80
2023/01/06 00:31:25;;;;;;;18.88;8.25;;;11.10;99.90;;;;;;6143691;23;20020;-79
2023/01/06 00:33:51;;;;;;;24.58;8.77;;;11.20;99.90;;;;;;6170331;23;20240;-77
2023/01/06 00:36:17;;;;;;;23.48;8.48;;;11.00;99.90;;;;;;6167795;23;20069;-78
2023/01/06 00:38:43;;;;;;;21.02;8.43;;;11.00;99.90;;;;;;6144006;23;20052;-76
2023/01/06 00:43:57;;;;;;;27.70;8.65;;;9.80;99.90;;;;;;6192175;23;20228;-78
2023/01/06 00:46:25;;;;;;;23.83;8.57;;;11.10;99.90;;;;;;6170755;23;20008;-80
2023/01/06 00:48:51;;;;;;;24.38;8.13;;;11.40;99.90;;;;;;6169727;23;20021;-78
2023/01/06 00:51:17;;;;;;;27.83;8.15;;;11.30;99.90;;;;;;6145300;23;20012;-78
2023/01/06 00:53:42;;;;;;;22.95;9.07;;;11.00;99.90;;;;;;6193772;23;20012;-77
2023/01/06 00:56:08;;;;;;;27.50;8.80;;;11.50;99.90;;;;;;6143141;23;20299;-78
2023/01/06 00:58:34;;;;;;;22.17;7.55;;;11.40;99.90;;;;;;6144193;23;20180;-78
2023/01/06 01:01:04;;;;;;;19.73;7.68;;;11.00;99.90;;;;;;6167839;23;20518;-79
2023/01/06 01:03:31;;;;;;;23.50;8.32;;;11.00;99.90;;;;;;6169364;23;20071;-78
2023/01/06 01:06:02;;;;;;;24.20;7.80;;;11.00;99.90;;;;;;6193594;23;20311;-79
2023/01/06 01:08:28;;;;;;;24.05;7.72;;;11.20;99.90;;;;;;6168328;23;20372;-77
2023/01/06 01:10:54;;;;;;;18.10;8.15;;;11.00;99.90;;;;;;6193288;23;20016;-79
2023/01/06 01:13:20;;;;;;;30.23;8.32;;;11.20;99.90;;;;;;6169389;23;20176;-79
2023/01/06 01:15:46;;;;;;;15.57;7.57;;;11.40;99.90;;;;;;6145900;23;20048;-78
2023/01/06 01:18:11;;;;;;;22.42;8.00;;;11.20;99.90;;;;;;6167665;23;20012;-79
2023/01/06 01:20:37;;;;;;;22.65;8.15;;;11.40;99.90;;;;;;6170674;23;20012;-80
2023/01/06 01:23:03;;;;;;;20.13;7.25;;;11.50;99.90;;;;;;6144148;23;20075;-78
2023/01/06 01:25:28;;;;;;;16.80;6.50;;;11.10;99.90;;;;;;6120268;23;20196;-80
2023/01/06 01:27:54;;;;;;;18.30;5.75;;;11.30;99.90;;;;;;6168082;23;20012;-80
2023/01/06 01:30:20;;;;;;;9.73;5.10;;;11.40;99.90;;;;;;6192879;23;20012;-80
2023/01/06 01:32:46;;;;;;;19.70;5.90;;;11.00;99.90;;;;;;6143722;23;20020;-78
2023/01/06 01:35:12;;;;;;;16.90;5.00;;;11.40;99.90;;;;;;6168421;23;20013;-79
2023/01/06 01:37:37;;;;;;;12.82;5.25;;;11.00;99.90;;;;;;6192614;23;20023;-79
2023/01/06 01:40:04;;;;;;;12.07;4.93;;;11.40;99.90;;;;;;6168582;23;20035;-78
2023/01/06 01:42:30;;;;;;;10.05;4.55;;;11.00;99.90;;;;;;6144944;23;20250;-79
2023/01/06 01:44:56;;;;;;;13.68;4.03;;;11.00;99.90;;;;;;6144086;23;20023;-79
2023/01/06 01:47:43;;;;;;;15.48;5.07;;;11.20;99.90;;;;;;6168339;23;20012;-80
2023/01/06 01:50:18;;;;;;;9.65;4.82;;;11.00;99.90;;;;;;6192203;23;20016;-79
2023/01/06 01:52:46;;;;;;;13.10;4.75;;;11.00;99.90;;;;;;6192138;23;20020;-79
2023/01/06 01:55:13;;;;;;;13.15;4.35;;;11.00;99.90;;;;;;6168237;23;20013;-78
2023/01/06 01:57:50;;;;;;;11.57;4.72;;;11.30;99.90;;;;;;6192547;23;20060;-79
2023/01/06 02:00:17;;;;;;;11.40;4.57;;;11.20;99.90;;;;;;6192766;23;20166;-78
2023/01/06 02:02:43;;;;;;;12.10;4.80;;;10.90;99.90;;;;;;6144480;23;20015;-78
2023/01/06 02:05:12;;;;;;;17.08;4.57;;;11.30;99.90;;;;;;6192599;23;20199;-78
2023/01/06 02:07:39;;;;;;;7.95;4.68;;;10.90;99.90;;;;;;6194122;23;20020;-78
2023/01/06 02:10:16;;;;;;;10.23;4.55;;;10.90;99.90;;;;;;6192944;23;20199;-79
2023/01/06 02:12:43;;;;;;;10.40;4.55;;;11.20;99.90;;;;;;6167580;23;20024;-78
2023/01/06 02:15:23;;;;;;;13.50;5.25;;;11.20;99.90;;;;;;6192448;23;20071;-78
2023/01/06 02:18:26;;;;;;;8.82;4.93;;;11.20;99.90;;;;;;6193127;23;20177;-78
2023/01/06 02:21:10;;;;;;;9.60;4.68;;;10.90;99.90;;;;;;6192105;23;20043;-77
2023/01/06 02:24:00;;;;;;;13.20;5.60;;;11.20;99.90;;;;;;6167889;23;20237;-79
2023/01/06 02:27:00;;;;;;;14.00;5.80;;;11.20;99.90;;;;;;6168906;23;20067;-77
2023/01/06 02:29:51;;;;;;;15.15;7.00;;;11.10;99.90;;;;;;6168613;23;20016;-77
2023/01/06 02:32:25;;;;;;;8.55;6.07;;;11.00;99.90;;;;;;6192653;23;20017;-79
2023/01/06 02:35:19;;;;;;;12.27;6.07;;;11.10;99.90;;;;;;6193569;23;20009;-79
2023/01/06 02:37:56;;;;;;;10.40;6.10;;;11.10;99.90;;;;;;6194726;23;20040;-79
2023/01/06 02:40:32;;;;;;;10.90;5.97;;;10.80;99.90;;;;;;6168136;23;20195;-78
2023/01/06 02:43:37;;;;;;;11.90;6.32;;;10.80;99.90;;;;;;6193989;23;20053;-80
2023/01/06 02:46:17;;;;;;;9.68;5.75;;;10.80;99.90;;;;;;6166531;23;20024;-78
2023/01/06 02:49:11;;;;;;;10.27;5.80;;;10.80;99.90;;;;;;6168062;23;20078;-78
2023/01/06 02:52:18;;;;;;;13.02;5.90;;;10.80;99.90;;;;;;6192334;23;20051;-78
2023/01/06 02:54:48;;;;;;;9.52;5.90;;;10.70;99.90;;;;;;6123247;23;20075;-78
2023/01/06 02:57:28;;;;;;;10.55;5.60;;;10.70;99.90;;;;;;6169767;23;20059;-79
2023/01/06 03:00:10;;;;;;;10.88;5.88;;;11.00;99.90;;;;;;6170803;23;20195;-78
2023/01/06 03:02:41;;;;;;;11.98;5.38;;;10.90;99.90;;;;;;6171748;23;20276;-77
2023/01/06 03:05:14;;;;;;;10.68;5.57;;;10.70;99.90;;;;;;6170348;23;20043;-76
2023/01/06 03:07:41;;;;;;;15.35;5.32;;;10.70;99.90;;;;;;6196268;23;20021;-77
2023/01/06 03:10:08;;;;;;;10.07;5.45;;;10.90;99.90;;;;;;6170416;23;20199;-78
2023/01/06 03:12:55;;;;;;;9.25;4.95;;;10.70;99.90;;;;;;6169563;23;20012;-76
2023/01/06 03:15:23;;;;;;;8.10;4.55;;;10.90;99.90;;;;;;6194510;23;20028;-77
2023/01/06 03:17:50;;;;;;;7.60;4.68;;;10.70;99.90;;;;;;6146727;23;20430;-78
2023/01/06 03:20:16;;;;;;;8.95;4.53;;;10.70;99.90;;;;;;6170334;23;20206;-77
2023/01/06 03:22:44;;;;;;;7.18;4.55;;;10.70;99.90;;;;;;6145823;23;20054;-77
2023/01/06 03:25:11;;;;;;;8.02;4.43;;;10.90;99.90;;;;;;6193587;23;20009;-77
2023/01/06 03:27:37;;;;;;;10.43;4.45;;;10.60;99.90;;;;;;6168302;23;20035;-78
2023/01/06 03:30:08;;;;;;;10.60;4.38;;;10.80;99.90;;;;;;6121535;23;20332;-78
2023/01/06 03:32:43;;;;;;;6.90;4.47;;;10.70;99.90;;;;;;6171288;23;20013;-78
2023/01/06 03:35:11;;;;;;;9.95;4.45;;;10.60;99.90;;;;;;6170137;23;20040;-77
2023/01/06 03:37:53;;;;;;;7.78;4.88;;;10.60;99.90;;;;;;6171494;23;20021;-77
2023/01/06 03:40:49;;;;;;;7.85;4.40;;;10.80;99.90;;;;;;6170529;23;20012;-77
2023/01/06 03:43:38;;;;;;;10.15;5.88;;;10.90;99.90;;;;;;6194103;23;20165;-78
2023/01/06 03:46:33;;;;;;;8.25;4.88;;;10.80;99.90;;;;;;6172129;23;20303;-78
2023/01/06 03:49:02;;;;;;;6.97;5.10;;;10.60;99.90;;;;;;6195545;23;20027;-77
2023/01/06 03:51:39;;;;;;;7.28;4.80;;;10.80;99.90;;;;;;6172207;23;20250;-77
2023/01/06 03:54:48;;;;;;;10.95;5.00;;;10.70;99.90;;;;;;6170387;23;20020;-78
2023/01/06 03:57:43;;;;;;;9.15;5.32;;;10.80;99.90;;;;;;6126151;23;20008;-78
2023/01/06 04:00:13;;;;;;;7.60;4.65;;;10.50;99.90;;;;;;6196187;23;20044;-77
2023/01/06 04:02:40;;;;;;;10.05;6.13;;;10.50;99.90;;;;;;6195341;23;20079;-77
2023/01/06 04:05:22;;;;;;;8.20;5.70;;;10.50;99.90;;;;;;6120951;23;20215;-76
2023/01/06 04:07:48;;;;;;;8.05;5.97;;;10.50;99.90;;;;;;6170263;23;20021;-78
2023/01/06 04:10:17;;;;;;;9.70;6.25;;;10.50;99.90;;;;;;6169442;23;20021;-78
2023/01/06 04:12:43;;;;;;;8.85;6.20;;;10.70;99.90;;;;;;6195323;23;20058;-77
2023/01/06 04:15:12;;;;;;;8.73;6.72;;;10.60;99.90;;;;;;6195674;23;20009;-77
2023/01/06 04:17:39;;;;;;;13.52;6.57;;;10.60;99.90;;;;;;6171065;23;20035;-78
2023/01/06 04:20:07;;;;;;;10.70;6.75;;;10.70;99.90;;;;;;6195476;23;20016;-77
2023/01/06 04:22:33;;;;;;;11.73;6.95;;;10.80;99.90;;;;;;6194503;23;20571;-79
2023/01/06 04:24:59;;;;;;;9.18;6.47;;;10.50;99.90;;;;;;6146251;23;20043;-78
2023/01/06 04:27:25;;;;;;;10.25;6.07;;;10.70;99.90;;;;;;6170388;23;20189;-77
2023/01/06 04:29:50;;;;;;;6.65;6.05;;;10.70;99.90;;;;;;6170065;23;20023;-78
2023/01/06 04:32:18;;;;;;;8.10;5.90;;;10.70;99.90;;;;;;6145932;23;20090;-79
2023/01/06 04:34:44;;;;;;;8.93;6.40;;;10.70;99.90;;;;;;6194843;23;20165;-79
2023/01/06 04:37:10;;;;;;;7.00;5.95;;;10.60;99.90;;;;;;6170788;23;20019;-79
2023/01/06 04:39:39;;;;;;;7.93;5.82;;;10.50;99.90;;;;;;6170001;23;20017;-78
2023/01/06 04:42:04;;;;;;;8.57;5.50;;;10.60;99.90;;;;;;6170843;23;20020;-79
2023/01/06 04:44:30;;;;;;;9.32;5.55;;;10.60;99.90;;;;;;6170123;23;20035;-79
2023/01/06 04:46:55;;;;;;;12.32;5.38;;;10.50;99.90;;;;;;6171317;23;20008;-80
2023/01/06 04:49:24;;;;;;;5.63;4.68;;;10.60;99.90;;;;;;6170409;23;20325;-80
2023/01/06 04:51:49;;;;;;;6.80;4.85;;;12.30;99.90;;;;;;6147189;23;20072;-79
2023/01/06 04:54:18;;;;;;;7.05;4.63;;;10.70;99.90;;;;;;6147653;23;20051;-79
2023/01/06 04:56:44;;;;;;;7.25;4.85;;;10.70;99.90;;;;;;6195266;23;20012;-78
2023/01/06 04:59:10;;;;;;;6.78;4.78;;;10.70;99.90;;;;;;6144646;23;20016;-79
2023/01/06 05:01:36;;;;;;;6.47;4.20;;;10.70;99.90;;;;;;6170049;23;20016;-79
2023/01/06 05:04:06;;;;;;;6.25;4.38;;;10.70;99.90;;;;;;6167580;23;20016;-79
2023/01/06 05:06:32;;;;;;;7.30;4.40;;;10.70;99.90;;;;;;6145275;23;20043;-79
2023/01/06 05:08:58;;;;;;;8.90;4.10;;;10.50;99.90;;;;;;6169156;23;20195;-79
2023/01/06 05:11:25;;;;;;;6.95;4.20;;;10.50;99.90;;;;;;6167914;23;20020;-78
2023/01/06 05:13:54;;;;;;;6.63;3.80;;;10.70;99.90;;;;;;6168515;23;20008;-78
2023/01/06 05:16:24;;;;;;;5.03;4.03;;;10.60;99.90;;;;;;6168523;23;20020;-79
2023/01/06 05:18:50;;;;;;;5.93;3.95;;;10.50;99.90;;;;;;6169172;23;20020;-79
2023/01/06 05:21:19;;;;;;;5.47;3.30;;;10.70;99.90;;;;;;6194406;23;20222;-80
2023/01/06 05:23:44;;;;;;;5.57;3.42;;;12.30;99.90;;;;;;6119236;23;20036;-79
2023/01/06 05:26:16;;;;;;;7.53;3.90;;;10.70;99.90;;;;;;6168094;23;20039;-79
2023/01/06 05:28:44;;;;;;;5.13;3.78;;;10.60;99.90;;;;;;6171634;23;20026;-80
2023/01/06 05:31:10;;;;;;;4.95;3.55;;;10.70;99.90;;;;;;6145375;23;20436;-78
2023/01/06 05:33:39;;;;;;;3.63;2.92;;;10.60;99.90;;;;;;6145573;23;20012;-77
2023/01/06 05:36:08;;;;;;;4.10;3.55;;;10.60;99.90;;;;;;6168283;23;20342;-79
2023/01/06 05:38:34;;;;;;;6.80;4.13;;;10.60;99.90;;;;;;6192886;23;20015;-79
2023/01/06 05:41:00;;;;;;;8.27;5.45;;;10.70;99.90;;;;;;6144293;23;20008;-78
2023/01/06 05:43:26;;;;;;;8.80;5.57;;;10.60;99.90;;;;;;6192005;23;20287;-78
2023/01/06 05:45:55;;;;;;;7.13;4.82;;;10.70;99.90;;;;;;6169493;23;20015;-78
2023/01/06 05:48:29;;;;;;;7.53;5.78;;;10.60;99.90;;;;;;6167834;23;20012;-80
2023/01/06 05:51:06;;;;;;;9.80;6.18;;;10.70;99.90;;;;;;6168268;23;20187;-79
2023/01/06 05:53:34;;;;;;;7.82;6.65;;;10.70;99.90;;;;;;6170519;23;20020;-79
2023/01/06 05:56:04;;;;;;;9.75;7.38;;;10.70;99.90;;;;;;6168190;23;20024;-79
2023/01/06 05:58:32;;;;;;;10.63;7.55;;;10.50;99.90;;;;;;6167900;23;20028;-80
2023/01/06 06:00:59;;;;;;;10.20;7.22;;;10.60;99.90;;;;;;6169571;23;20009;-79
2023/01/06 06:03:24;;;;;;;10.95;7.65;;;10.70;99.90;;;;;;6169804;23;20008;-80
2023/01/06 06:05:50;;;;;;;9.88;8.00;;;10.60;99.90;;;;;;6145640;23;20302;-77
2023/01/06 06:08:16;;;;;;;9.18;8.20;;;10.60;99.90;;;;;;6194738;23;20020;-77
2023/01/06 06:10:44;;;;;;;9.80;7.97;;;10.40;99.90;;;;;;6171235;23;20238;-77
2023/01/06 06:13:10;;;;;;;10.50;9.38;;;10.50;99.90;;;;;;6170694;23;20052;-79
2023/01/06 06:15:36;;;;;;;10.93;9.18;;;10.40;99.90;;;;;;6145014;23;20012;-78
2023/01/06 06:18:05;;;;;;;8.35;7.43;;;10.30;99.90;;;;;;6170358;23;20090;-79
2023/01/06 06:20:30;;;;;;;10.30;7.90;;;10.40;99.90;;;;;;6146638;23;20175;-79
2023/01/06 06:22:59;;;;;;;13.30;8.98;;;10.50;99.90;;;;;;6144030;23;20017;-79
2023/01/06 06:25:25;;;;;;;10.18;7.88;;;10.40;99.90;;;;;;6168981;23;20461;-78
2023/01/06 06:27:50;;;;;;;12.43;8.55;;;10.60;99.90;;;;;;6167942;23;20107;-77
2023/01/06 06:30:18;;;;;;;10.32;7.90;;;10.50;99.90;;;;;;6166389;23;20020;-77
2023/01/06 06:32:44;;;;;;;10.77;8.63;;;9.90;99.90;;;;;;6192288;23;20012;-78
2023/01/06 06:35:11;;;;;;;9.85;8.15;;;10.40;99.90;;;;;;6193883;23;20020;-78
2023/01/06 06:37:39;;;;;;;8.52;7.60;;;10.40;99.90;;;;;;6143984;23;20031;-77
2023/01/06 06:40:05;;;;;;;9.27;8.15;;;10.40;99.90;;;;;;6192916;23;20016;-78
2023/01/06 06:42:31;;;;;;;10.98;8.70;;;10.50;99.90;;;;;;6167931;23;20017;-77
2023/01/06 06:44:59;;;;;;;11.15;7.88;;;10.40;99.90;;;;;;6167381;23;20496;-78
2023/01/06 06:47:25;;;;;;;10.05;8.25;;;10.60;99.90;;;;;;6143401;23;20391;-79
2023/01/06 06:49:51;;;;;;;9.13;8.23;;;10.40;99.90;;;;;;6120723;23;20028;-79
2023/01/06 06:52:20;;;;;;;11.35;8.95;;;10.30;99.90;;;;;;6147987;23;20066;-80
2023/01/06 06:54:49;;;;;;;11.48;8.82;;;10.60;99.90;;;;;;6121691;23;20260;-81
2023/01/06 06:57:21;;;;;;;10.52;9.45;;;10.70;99.90;;;;;;6170429;23;20047;-80
2023/01/06 06:59:52;;;;;;;11.32;8.48;;;10.10;99.90;;;;;;6169594;23;20008;-82
2023/01/06 07:02:23;;;;;;;15.30;10.00;;;10.70;99.90;;;;;;6169910;23;20049;-81
2023/01/06 07:04:49;;;;;;;11.98;9.15;;;10.30;99.90;;;;;;6170595;23;20020;-81
2023/01/06 07:07:14;;;;;;;11.70;9.07;;;10.50;99.90;;;;;;6169474;23;20115;-82
2023/01/06 07:09:40;;;;;;;11.02;9.80;;;10.30;99.90;;;;;;6121322;23;20012;-80
2023/01/06 07:12:09;;;;;;;12.15;9.88;;;10.60;99.90;;;;;;6122036;23;20024;-81
2023/01/06 07:14:35;;;;;;;12.82;10.02;;;10.50;99.90;;;;;;6147456;23;20008;-82
2023/01/06 07:17:01;;;;;;;11.13;8.98;;;10.60;99.90;;;;;;6147572;23;20036;-81
2023/01/06 07:19:49;;;;;;;10.13;9.02;;;10.30;99.90;;;;;;6169011;23;20015;-81
2023/01/06 07:22:15;;;;;;;10.95;8.82;;;10.70;99.90;;;;;;6169864;23;20250;-80
2023/01/06 07:24:41;;;;;;;13.07;8.98;;;11.00;99.90;;;;;;6169490;23;20009;-81
2023/01/06 07:27:10;;;;;;;10.00;8.98;;;10.60;99.90;;;;;;6170778;23;20274;-81
2023/01/06 07:29:35;;;;;;;9.95;7.63;;;10.80;99.90;;;;;;6191638;23;20016;-81
2023/01/06 07:32:04;;;;;;;11.13;7.40;;;10.50;99.90;;;;;;6192619;23;20059;-79
2023/01/06 07:34:49;;;;;;;6.53;5.65;;;10.40;99.90;;;;;;6167483;23;20036;-78
2023/01/06 07:46:03;;;;;;;4.32;3.92;;;11.40;99.90;;;;;;5874631;24;20059;-79
2023/01/06 07:52:21;;;;;;;4.32;3.78;;;11.00;99.90;;;;;;5767251;24;20031;-68
2023/01/06 07:56:01;;;;;;;;;;;;;;;;;;;;;
2023/01/06 07:59:58;;;;;;;;;;;;;;;;;;;;;
2023/01/06 08:02:34;;;;;;;4.07;1.83;;;9.50;99.90;;;;;;5867098;23;20024;-77
2023/01/06 08:05:00;;;;;;;4.40;1.60;;;10.50;99.90;;;;;;6032100;23;20058;-77
2023/01/06 08:07:25;;;;;;;7.25;1.70;;;10.40;99.90;;;;;;5996078;23;20354;-79
2023/01/06 08:09:51;;;;;;;2.97;1.67;;;10.00;99.90;;;;;;6152163;23;20189;-80
2023/01/06 08:12:23;;;;;;;3.83;1.40;;;10.20;99.90;;;;;;6160586;23;20017;-78
2023/01/06 08:14:48;;;;;;;3.40;1.35;;;9.70;99.90;;;;;;6161416;23;20009;-77
2023/01/06 08:17:17;;;;;;;7.63;1.40;;;10.10;99.90;;;;;;6164086;23;20199;-78
2023/01/06 08:19:43;;;;;;;5.25;1.90;;;9.60;99.90;;;;;;6111694;23;20012;-78
2023/01/06 08:22:12;;;;;;;6.90;1.13;;;10.00;99.90;;;;;;6114089;23;20021;-77
2023/01/06 08:24:40;;;;;;;4.45;1.25;;;9.40;99.90;;;;;;6160795;23;20349;-77
2023/01/06 08:27:06;;;;;;;7.07;1.23;;;9.30;99.90;;;;;;6138050;23;20128;-77
2023/01/06 08:29:55;;;;;;;5.07;1.00;;;9.70;99.90;;;;;;6112612;23;20009;-78
2023/01/06 08:32:21;;;;;;;3.72;1.10;;;9.60;99.90;;;;;;6161692;23;20075;-76
2023/01/06 08:34:47;;;;;;;2.70;1.40;;;9.60;99.90;;;;;;6112352;23;20033;-77
2023/01/06 08:37:13;;;;;;;5.25;1.35;;;9.50;99.90;;;;;;6163649;23;20299;-77
2023/01/06 08:39:39;;;;;;;4.95;1.10;;;9.40;99.90;;;;;;6112668;23;20024;-77
2023/01/06 08:42:05;;;;;;;2.60;0.93;;;9.60;99.90;;;;;;6162880;23;20017;-77
2023/01/06 08:44:30;;;;;;;3.85;0.90;;;9.70;99.90;;;;;;6163162;23;20009;-77
2023/01/06 08:46:56;;;;;;;3.10;1.27;;;9.80;99.90;;;;;;6113956;23;20070;-78
2023/01/06 08:49:22;;;;;;;2.40;1.02;;;9.50;99.90;;;;;;6162118;23;20009;-77
2023/01/06 08:51:56;;;;;;;2.67;0.90;;;9.60;99.90;;;;;;6162867;23;20091;-77
2023/01/06 08:54:28;;;;;;;4.70;0.90;;;9.10;99.90;;;;;;6163195;23;20266;-76
2023/01/06 08:56:58;;;;;;;3.25;0.93;;;9.40;99.90;;;;;;6180359;23;20012;-76
2023/01/06 08:59:23;;;;;;;2.20;1.08;;;8.90;99.90;;;;;;6167435;23;20024;-76
2023/01/06 09:01:49;;;;;;;6.57;1.00;;;9.20;99.90;;;;;;6142788;23;20523;-77
2023/01/06 09:04:18;;;;;;;5.20;0.98;;;9.00;99.90;;;;;;6193412;23;20299;-77
2023/01/06 09:06:46;;;;;;;3.92;0.70;;;8.90;99.90;;;;;;6144353;23;20016;-77
2023/01/06 09:09:12;;;;;;;8.02;1.45;;;9.10;99.90;;;;;;6166296;23;20341;-78
2023/01/06 09:11:42;;;;;;;3.78;1.55;;;9.10;99.90;;;;;;6168371;23;20017;-78
2023/01/06 09:14:12;;;;;;;7.63;1.38;;;9.30;99.90;;;;;;6169916;23;20013;-76
2023/01/06 09:16:42;;;;;;;3.60;1.35;;;9.10;99.90;;;;;;6167739;23;20016;-78
2023/01/06 09:19:10;;;;;;;10.80;1.70;;;9.30;99.90;;;;;;6168397;23;20250;-74
2023/01/06 09:21:36;;;;;;;6.07;1.23;;;9.30;99.90;;;;;;6144278;23;20017;-75
2023/01/06 09:24:02;;;;;;;3.85;1.13;;;9.00;99.90;;;;;;6193452;23;20071;-74
2023/01/06 09:26:28;;;;;;;6.78;1.30;;;9.10;99.90;;;;;;6169461;23;20135;-75
2023/01/06 09:28:53;;;;;;;5.82;2.10;;;9.40;99.90;;;;;;6169283;23;20016;-75
2023/01/06 09:31:19;;;;;;;4.55;1.00;;;9.50;99.90;;;;;;6169415;23;20192;-77
2023/01/06 09:33:45;;;;;;;8.27;1.58;;;10.00;99.90;;;;;;6144301;23;20083;-77
2023/01/06 09:36:11;;;;;;;5.43;1.08;;;10.30;99.90;;;;;;6193331;23;20016;-77
2023/01/06 09:38:36;;;;;;;10.07;1.35;;;10.60;99.90;;;;;;6193187;23;20055;-78
2023/01/06 09:41:37;;;;;;;5.38;1.45;;;11.10;99.90;;;;;;6169025;23;20008;-79
2023/01/06 09:44:16;;;;;;;5.63;1.10;;;10.90;99.90;;;;;;6169247;23;20008;-78
2023/01/06 09:46:45;;;;;;;6.55;1.30;;;11.20;99.90;;;;;;6193525;23;20009;-78
2023/01/06 09:49:29;;;;;;;8.57;1.33;;;11.70;99.90;;;;;;6193134;23;20020;-77
2023/01/06 09:52:03;;;;;;;10.15;1.20;;;11.70;99.90;;;;;;6169082;23;20020;-78
2023/01/06 09:54:35;;;;;;;6.57;1.58;;;11.70;99.90;;;;;;6168316;23;20028;-76
2023/01/06 09:57:20;;;;;;;4.25;1.45;;;11.80;99.90;;;;;;6169039;23;20131;-77
2023/01/06 09:59:57;;;;;;;8.65;1.52;;;11.50;99.90;;;;;;6168184;23;20020;-77
2023/01/06 10:02:35;;;;;;;7.65;1.65;;;10.80;99.90;;;;;;6169092;23;20051;-77
2023/01/06 10:05:02;;;;;;;4.50;1.35;;;10.50;99.90;;;;;;6168003;23;20017;-77
2023/01/06 10:07:50;;;;;;;6.75;0.88;;;10.50;99.90;;;;;;6191920;23;20020;-78
2023/01/06 10:10:55;;;;;;;7.53;1.30;;;10.30;99.90;;;;;;6169014;23;20453;-76
2023/01/06 10:13:23;;;;;;;6.07;1.17;;;10.00;99.90;;;;;;6142521;23;20013;-76
2023/01/06 10:16:17;;;;;;;8.35;1.90;;;9.90;99.90;;;;;;6167389;23;20012;-77
2023/01/06 10:19:00;;;;;;;9.95;1.40;;;10.00;99.90;;;;;;6192894;23;20008;-76
2023/01/06 10:21:40;;;;;;;6.95;1.42;;;9.80;99.90;;;;;;6169627;23;20366;-78
2023/01/06 10:24:05;;;;;;;7.35;1.40;;;9.80;99.90;;;;;;6193192;23;20016;-77
2023/01/06 10:26:38;;;;;;;6.00;1.33;;;10.00;99.90;;;;;;6192070;23;20016;-77
2023/01/06 10:29:56;;;;;;;7.80;1.60;;;10.10;99.90;;;;;;6167585;23;20027;-78
2023/01/06 10:32:58;;;;;;;5.88;1.17;;;10.10;99.90;;;;;;6169763;23;20215;-77
2023/01/06 10:35:57;;;;;;;9.03;1.37;;;10.50;99.90;;;;;;6101461;23;20043;-77
2023/01/06 10:39:18;;;;;;;6.07;1.35;;;10.60;99.90;;;;;;6168528;23;20016;-78
2023/01/06 10:45:01;;;;;;;8.32;1.80;;;11.90;99.90;;;;;;6193266;23;20013;-77
2023/01/06 10:47:31;;;;;;;7.40;1.40;;;11.80;99.90;;;;;;6144002;23;20013;-75
2023/01/06 10:49:58;;;;;;;6.95;1.30;;;12.60;99.90;;;;;;6144477;23;20036;-78
2023/01/06 10:52:27;;;;;;;8.00;1.70;;;12.30;99.90;;;;;;6169182;23;20024;-77
2023/01/06 10:55:32;;;;;;;;;;;;;;;;;;;;;
2023/01/06 10:58:03;;;;;;;5.35;1.40;;;12.50;99.90;;;;;;6185710;23;20024;-77
2023/01/06 11:00:30;;;;;;;9.60;1.30;;;12.40;99.90;;;;;;6192511;23;20024;-76
2023/01/06 11:03:07;;;;;;;8.13;1.80;;;12.50;99.90;;;;;;6167822;23;20017;-77
2023/01/06 11:05:34;;;;;;;8.13;1.27;;;12.60;99.90;;;;;;6167515;23;20023;-77
2023/01/06 11:08:07;;;;;;;6.53;1.73;;;12.60;99.90;;;;;;6192615;23;20017;-76
2023/01/06 11:10:57;;;;;;;5.30;1.58;;;12.50;99.90;;;;;;6192976;23;20019;-77
2023/01/06 11:13:33;;;;;;;4.45;1.50;;;12.40;99.90;;;;;;6168276;23;20055;-77
2023/01/06 11:16:03;;;;;;;4.25;1.20;;;12.20;99.90;;;;;;6171050;23;20223;-78
2023/01/06 11:18:31;;;;;;;8.10;1.65;;;12.20;99.90;;;;;;6171223;23;20016;-77
2023/01/06 11:21:27;;;;;;;7.18;1.45;;;12.50;99.90;;;;;;6194137;23;20078;-77
2023/01/06 11:24:07;;;;;;;;;;;12.70;99.90;;;;;;6170046;23;20016;-77
2023/01/06 11:26:47;;;;;;;8.00;1.73;;;12.80;99.90;;;;;;6170092;23;20146;-79
2023/01/06 11:29:22;;;;;;;6.78;1.92;;;12.90;99.90;;;;;;6194299;23;20332;-77
2023/01/06 11:31:49;;;;;;;9.02;1.80;;;12.50;99.90;;;;;;6194246;23;20080;-78
2023/01/06 11:34:29;;;;;;;7.95;1.55;;;13.00;99.90;;;;;;6195888;23;20072;-79
2023/01/06 11:36:58;;;;;;;10.23;1.98;;;13.00;99.90;;;;;;6194424;23;20027;-76
2023/01/06 11:39:35;;;;;;;9.10;1.50;;;12.90;99.90;;;;;;6170598;23;20013;-75
2023/01/06 11:42:11;;;;;;;7.38;1.92;;;12.10;99.90;;;;;;6195070;23;20012;-74
2023/01/06 11:44:39;;;;;;;4.95;1.52;;;11.60;99.90;;;;;;6195479;23;20016;-75
2023/01/06 11:47:23;;;;;;;8.52;1.60;;;11.70;99.90;;;;;;6195120;23;20012;-75
2023/01/06 11:49:52;;;;;;;6.07;1.20;;;12.20;99.90;;;;;;6193591;23;20185;-75
2023/01/06 11:52:29;;;;;;;7.43;1.30;;;11.70;99.90;;;;;;6169813;23;20055;-76
2023/01/06 11:55:07;;;;;;;7.60;1.80;;;12.00;99.90;;;;;;6169354;23;20009;-77
2023/01/06 11:57:39;;;;;;;8.20;1.30;;;11.60;99.90;;;;;;6194536;23;20017;-76
2023/01/06 12:00:11;;;;;;;5.88;1.35;;;11.50;99.90;;;;;;6194307;23;20016;-76
2023/01/06 12:02:55;;;;;;;8.13;1.40;;;11.30;99.90;;;;;;6194686;23;20025;-75
2023/01/06 12:05:44;;;;;;;6.75;1.45;;;11.20;99.90;;;;;;6169798;23;20180;-75
2023/01/06 12:08:17;;;;;;;7.53;1.40;;;10.80;99.90;;;;;;6177291;23;20023;-75
2023/01/06 12:10:47;;;;;;;10.35;2.03;;;10.80;99.90;;;;;;6168118;23;20250;-75
2023/01/06 12:13:13;;;;;;;6.30;1.40;;;10.70;99.90;;;;;;6192710;23;20044;-75
2023/01/06 12:15:43;;;;;;;9.70;1.80;;;10.50;99.90;;;;;;6143235;23;20031;-74
2023/01/06 12:18:20;;;;;;;4.53;1.13;;;10.50;99.90;;;;;;6167964;23;20686;-75
2023/01/06 12:20:50;;;;;;;7.95;1.65;;;10.40;99.90;;;;;;6168206;23;20066;-75
2023/01/06 12:23:24;;;;;;;6.53;1.83;;;10.30;99.90;;;;;;6167296;23;20009;-77
2023/01/06 12:25:54;;;;;;;9.30;1.48;;;10.20;99.90;;;;;;6167073;23;20458;-75
2023/01/06 12:28:27;;;;;;;10.80;1.95;;;10.20;99.90;;;;;;6192581;23;20019;-77
2023/01/06 12:34:24;;;;;;;7.18;1.63;;;10.10;99.90;;;;;;6125758;23;20026;-76
2023/01/06 12:37:19;;;;;;;5.85;1.20;;;9.90;99.90;;;;;;6155620;23;20024;-77
2023/01/06 12:40:00;;;;;;;6.88;1.60;;;9.90;99.90;;;;;;6167039;23;20194;-76
2023/01/06 12:42:48;;;;;;;6.90;1.92;;;10.00;99.90;;;;;;6193220;23;20020;-74
2023/01/06 12:45:44;;;;;;;4.70;1.20;;;9.90;99.90;;;;;;6192810;23;20015;-75
2023/01/06 12:48:25;;;;;;;10.20;1.70;;;10.00;99.90;;;;;;6193427;23;20227;-75
2023/01/06 12:50:57;;;;;;;6.07;1.67;;;10.00;99.90;;;;;;6193914;23;20031;-76
2023/01/06 12:53:35;;;;;;;6.10;1.50;;;9.90;99.90;;;;;;6194696;23;20059;-78
2023/01/06 12:56:14;;;;;;;6.07;1.30;;;9.90;99.90;;;;;;6168826;23;20028;-77
2023/01/06 12:59:04;;;;;;;5.22;1.33;;;10.00;99.90;;;;;;6168662;23;20083;-77
2023/01/06 13:01:44;;;;;;;10.98;1.83;;;10.00;99.90;;;;;;6170154;23;20028;-76
2023/01/06 13:04:39;;;;;;;9.27;1.60;;;10.10;99.90;;;;;;6194475;23;20017;-75
2023/01/06 13:07:25;;;;;;;6.75;1.27;;;10.10;99.90;;;;;;6193595;23;20236;-76
2023/01/06 13:09:57;;;;;;;9.48;1.50;;;10.30;99.90;;;;;;6169084;23;20023;-76
2023/01/06 13:12:43;;;;;;;5.35;1.30;;;10.20;99.90;;;;;;6193932;23;20040;-75
2023/01/06 13:15:27;;;;;;;7.38;1.98;;;10.20;99.90;;;;;;6166647;23;20420;-75
2023/01/06 13:18:27;;;;;;;6.53;1.63;;;10.10;99.90;;;;;;6167073;23;20079;-75
2023/01/06 13:21:11;;;;;;;5.45;1.10;;;9.90;99.90;;;;;;6166465;23;20012;-76
2023/01/06 13:24:28;;;;;;;9.98;1.70;;;9.90;99.90;;;;;;6143288;23;20034;-76
2023/01/06 13:27:11;;;;;;;4.97;1.48;;;9.80;99.90;;;;;;6018452;23;20019;-75
2023/01/06 13:29:52;;;;;;;7.88;1.73;;;9.70;99.90;;;;;;6102535;23;20012;-76
2023/01/06 13:32:30;;;;;;;7.10;1.60;;;9.70;99.90;;;;;;6192037;23;20016;-76
2023/01/06 13:35:14;;;;;;;11.73;1.70;;;9.60;99.90;;;;;;6166186;23;20008;-76
2023/01/06 13:37:48;;;;;;;7.95;1.70;;;9.50;99.90;;;;;;6192711;23;20027;-76
2023/01/06 13:40:25;;;;;;;9.35;1.50;;;9.50;99.90;;;;;;6192207;23;20315;-77
2023/01/06 13:43:03;;;;;;;7.20;1.85;;;9.50;99.90;;;;;;6191980;23;20016;-76